sensor_id;sensor_type;location;lat;lon;timestamp;pressure;altitude;pressure_sealevel;temperature;humidity
53719;BME280;39616;48.872;9.390;2023-08-21T00:00:59;98788.75;;;23.04;100.00
53719;BME280;39616;48.872;9.390;2023-08-21T00:03:30;98800.13;;;22.99;100.00
53719;BME280;39616;48.872;9.390;2023-08-21T00:06:00;98798.47;;;22.94;100.00
53719;BME280;39616;48.872;9.390;2023-08-21T00:08:31;98801.91;;;22.91;100.00
53719;BME280;39616;48.872;9.390;2023-08-21T00:11:01;98797.47;;;22.86;100.00
53719;BME280;39616;48.872;9.390;2023-08-21T00:13:31;98798.97;;;22.80;100.00
53719;BME280;39616;48.872;9.390;2023-08-21T00:16:01;98802.13;;;22.82;100.00
53719;BME280;39616;48.872;9.390;2023-08-21T00:18:32;98799.38;;;22.82;100.00
53719;BME280;39616;48.872;9.390;2023-08-21T00:21:02;98799.81;;;22.84;100.00
53719;BME280;39616;48.872;9.390;2023-08-21T00:23:33;98799.31;;;22.79;100.00
53719;BME280;39616;48.872;9.390;2023-08-21T00:26:03;98801.66;;;22.77;100.00
53719;BME280;39616;48.872;9.390;2023-08-21T00:28:34;98799.22;;;22.75;100.00
53719;BME280;39616;48.872;9.390;2023-08-21T00:31:05;98798.81;;;22.73;100.00
53719;BME280;39616;48.872;9.390;2023-08-21T00:33:35;98795.59;;;22.71;100.00
53719;BME280;39616;48.872;9.390;2023-08-21T00:36:07;98799.47;;;22.66;100.00
53719;BME280;39616;48.872;9.390;2023-08-21T00:38:37;98798.59;;;22.62;100.00
53719;BME280;39616;48.872;9.390;2023-08-21T00:41:07;98791.84;;;22.60;100.00
53719;BME280;39616;48.872;9.390;2023-08-21T00:43:38;98793.00;;;22.59;100.00
53719;BME280;39616;48.872;9.390;2023-08-21T00:46:08;98788.28;;;22.59;100.00
53719;BME280;39616;48.872;9.390;2023-08-21T00:48:38;98794.91;;;22.55;100.00
53719;BME280;39616;48.872;9.390;2023-08-21T00:51:09;98796.44;;;22.52;100.00
53719;BME280;39616;48.872;9.390;2023-08-21T00:53:41;98787.28;;;22.48;100.00
53719;BME280;39616;48.872;9.390;2023-08-21T00:56:12;98793.53;;;22.45;100.00
53719;BME280;39616;48.872;9.390;2023-08-21T00:58:43;98786.41;;;22.44;100.00
53719;BME280;39616;48.872;9.390;2023-08-21T01:01:15;98785.81;;;22.35;100.00
53719;BME280;39616;48.872;9.390;2023-08-21T01:03:47;98787.28;;;22.29;100.00
53719;BME280;39616;48.872;9.390;2023-08-21T01:06:19;98790.47;;;22.31;100.00
53719;BME280;39616;48.872;9.390;2023-08-21T01:09:13;98800.06;;;22.17;100.00
53719;BME280;39616;48.872;9.390;2023-08-21T01:15:04;98794.47;;;21.98;100.00
53719;BME280;39616;48.872;9.390;2023-08-21T01:17:36;98788.94;;;21.98;100.00
53719;BME280;39616;48.872;9.390;2023-08-21T01:20:07;98785.75;;;21.96;100.00
53719;BME280;39616;48.872;9.390;2023-08-21T01:22:41;98788.34;;;21.89;100.00
53719;BME280;39616;48.872;9.390;2023-08-21T01:25:16;98784.63;;;21.81;100.00
53719;BME280;39616;48.872;9.390;2023-08-21T01:27:48;98788.13;;;21.78;100.00
53719;BME280;39616;48.872;9.390;2023-08-21T01:30:19;98797.19;;;21.79;100.00
53719;BME280;39616;48.872;9.390;2023-08-21T01:33:01;98797.66;;;21.81;100.00
53719;BME280;39616;48.872;9.390;2023-08-21T01:35:36;98788.19;;;21.82;100.00
53719;BME280;39616;48.872;9.390;2023-08-21T01:38:06;98791.31;;;21.80;100.00
53719;BME280;39616;48.872;9.390;2023-08-21T01:40:37;98795.69;;;21.81;100.00
53719;BME280;39616;48.872;9.390;2023-08-21T01:43:07;98794.44;;;21.79;100.00
53719;BME280;39616;48.872;9.390;2023-08-21T01:45:37;98784.97;;;21.80;100.00
53719;BME280;39616;48.872;9.390;2023-08-21T01:48:08;98781.44;;;21.79;100.00
53719;BME280;39616;48.872;9.390;2023-08-21T01:50:38;98780.13;;;21.73;100.00
53719;BME280;39616;48.872;9.390;2023-08-21T01:53:09;98783.50;;;21.66;100.00
53719;BME280;39616;48.872;9.390;2023-08-21T01:55:39;98783.78;;;21.61;100.00
53719;BME280;39616;48.872;9.390;2023-08-21T01:58:10;98781.31;;;21.56;100.00
53719;BME280;39616;48.872;9.390;2023-08-21T02:00:40;98777.28;;;21.54;100.00
53719;BME280;39616;48.872;9.390;2023-08-21T02:03:10;98778.03;;;21.51;100.00
53719;BME280;39616;48.872;9.390;2023-08-21T02:05:41;98779.97;;;21.50;100.00
53719;BME280;39616;48.872;9.390;2023-08-21T02:08:14;98783.00;;;21.45;100.00
53719;BME280;39616;48.872;9.390;2023-08-21T02:10:51;98779.81;;;21.43;100.00
53719;BME280;39616;48.872;9.390;2023-08-21T02:13:22;98773.03;;;21.40;100.00
53719;BME280;39616;48.872;9.390;2023-08-21T02:15:52;98778.56;;;21.40;100.00
53719;BME280;39616;48.872;9.390;2023-08-21T02:18:22;98775.00;;;21.40;100.00
53719;BME280;39616;48.872;9.390;2023-08-21T02:20:53;98775.34;;;21.38;100.00
53719;BME280;39616;48.872;9.390;2023-08-21T02:23:23;98775.25;;;21.35;100.00
53719;BME280;39616;48.872;9.390;2023-08-21T02:25:54;98776.69;;;21.29;100.00
53719;BME280;39616;48.872;9.390;2023-08-21T02:28:24;98787.97;;;21.23;100.00
53719;BME280;39616;48.872;9.390;2023-08-21T02:30:55;98789.50;;;21.21;100.00
53719;BME280;39616;48.872;9.390;2023-08-21T02:33:25;98781.94;;;21.18;100.00
53719;BME280;39616;48.872;9.390;2023-08-21T02:35:55;98780.75;;;21.19;100.00
53719;BME280;39616;48.872;9.390;2023-08-21T02:38:26;98779.97;;;21.18;100.00
53719;BME280;39616;48.872;9.390;2023-08-21T02:40:56;98778.81;;;21.19;100.00
53719;BME280;39616;48.872;9.390;2023-08-21T02:43:26;98789.03;;;21.19;100.00
53719;BME280;39616;48.872;9.390;2023-08-21T02:45:57;98778.00;;;21.19;100.00
53719;BME280;39616;48.872;9.390;2023-08-21T02:48:27;98786.97;;;21.16;100.00
53719;BME280;39616;48.872;9.390;2023-08-21T02:50:57;98790.09;;;21.14;100.00
53719;BME280;39616;48.872;9.390;2023-08-21T02:53:28;98783.69;;;21.10;100.00
53719;BME280;39616;48.872;9.390;2023-08-21T02:55:58;98776.13;;;21.07;100.00
53719;BME280;39616;48.872;9.390;2023-08-21T02:58:28;98788.56;;;21.01;100.00
53719;BME280;39616;48.872;9.390;2023-08-21T03:00:59;98784.94;;;20.97;100.00
53719;BME280;39616;48.872;9.390;2023-08-21T03:03:29;98794.69;;;20.94;100.00
53719;BME280;39616;48.872;9.390;2023-08-21T03:05:59;98791.03;;;20.90;100.00
53719;BME280;39616;48.872;9.390;2023-08-21T03:08:30;98794.97;;;20.89;100.00
53719;BME280;39616;48.872;9.390;2023-08-21T03:11:00;98789.72;;;20.84;100.00
53719;BME280;39616;48.872;9.390;2023-08-21T03:13:30;98798.31;;;20.83;100.00
53719;BME280;39616;48.872;9.390;2023-08-21T03:16:00;98798.44;;;20.86;100.00
53719;BME280;39616;48.872;9.390;2023-08-21T03:18:31;98790.84;;;20.83;100.00
53719;BME280;39616;48.872;9.390;2023-08-21T03:21:02;98792.72;;;20.79;100.00
53719;BME280;39616;48.872;9.390;2023-08-21T03:23:35;98802.47;;;20.77;100.00
53719;BME280;39616;48.872;9.390;2023-08-21T03:26:05;98801.69;;;20.76;100.00
53719;BME280;39616;48.872;9.390;2023-08-21T03:28:35;98803.66;;;20.75;100.00
53719;BME280;39616;48.872;9.390;2023-08-21T03:31:06;98804.81;;;20.74;100.00
53719;BME280;39616;48.872;9.390;2023-08-21T03:33:36;98799.19;;;20.71;100.00
53719;BME280;39616;48.872;9.390;2023-08-21T03:36:06;98804.16;;;20.65;100.00
53719;BME280;39616;48.872;9.390;2023-08-21T03:38:37;98800.06;;;20.59;100.00
53719;BME280;39616;48.872;9.390;2023-08-21T03:41:07;98799.72;;;20.48;100.00
53719;BME280;39616;48.872;9.390;2023-08-21T03:43:37;98801.81;;;20.39;100.00
53719;BME280;39616;48.872;9.390;2023-08-21T03:46:08;98796.94;;;20.33;100.00
53719;BME280;39616;48.872;9.390;2023-08-21T03:48:38;98800.00;;;20.31;100.00
53719;BME280;39616;48.872;9.390;2023-08-21T03:51:08;98799.56;;;20.29;100.00
53719;BME280;39616;48.872;9.390;2023-08-21T03:53:39;98801.88;;;20.27;100.00
53719;BME280;39616;48.872;9.390;2023-08-21T03:56:09;98812.53;;;20.28;100.00
53719;BME280;39616;48.872;9.390;2023-08-21T03:58:39;98809.44;;;20.30;100.00
53719;BME280;39616;48.872;9.390;2023-08-21T04:01:10;98809.44;;;20.30;100.00
53719;BME280;39616;48.872;9.390;2023-08-21T04:03:40;98805.53;;;20.31;100.00
53719;BME280;39616;48.872;9.390;2023-08-21T04:06:10;98812.97;;;20.31;100.00
53719;BME280;39616;48.872;9.390;2023-08-21T04:08:40;98809.06;;;20.32;100.00
53719;BME280;39616;48.872;9.390;2023-08-21T04:11:11;98809.53;;;20.34;100.00
53719;BME280;39616;48.872;9.390;2023-08-21T04:13:41;98810.50;;;20.25;100.00
53719;BME280;39616;48.872;9.390;2023-08-21T04:16:11;98814.72;;;20.23;100.00
53719;BME280;39616;48.872;9.390;2023-08-21T04:18:42;98818.53;;;20.18;100.00
53719;BME280;39616;48.872;9.390;2023-08-21T04:21:12;98821.97;;;20.15;100.00
53719;BME280;39616;48.872;9.390;2023-08-21T04:23:44;98831.41;;;20.14;100.00
53719;BME280;39616;48.872;9.390;2023-08-21T04:26:15;98828.63;;;20.14;100.00
53719;BME280;39616;48.872;9.390;2023-08-21T04:28:45;98834.94;;;20.15;100.00
53719;BME280;39616;48.872;9.390;2023-08-21T04:31:15;98833.31;;;20.14;100.00
53719;BME280;39616;48.872;9.390;2023-08-21T04:33:46;98840.09;;;20.16;100.00
53719;BME280;39616;48.872;9.390;2023-08-21T04:36:16;98837.69;;;20.15;100.00
53719;BME280;39616;48.872;9.390;2023-08-21T04:38:47;98845.16;;;20.14;100.00
53719;BME280;39616;48.872;9.390;2023-08-21T04:41:17;98837.34;;;20.16;100.00
53719;BME280;39616;48.872;9.390;2023-08-21T04:43:47;98834.25;;;20.18;100.00
53719;BME280;39616;48.872;9.390;2023-08-21T04:46:18;98838.13;;;20.17;100.00
53719;BME280;39616;48.872;9.390;2023-08-21T04:48:49;98839.75;;;20.18;100.00
53719;BME280;39616;48.872;9.390;2023-08-21T04:51:23;98831.94;;;20.20;100.00
53719;BME280;39616;48.872;9.390;2023-08-21T04:53:53;98835.59;;;20.24;100.00
53719;BME280;39616;48.872;9.390;2023-08-21T04:56:23;98833.75;;;20.28;100.00
53719;BME280;39616;48.872;9.390;2023-08-21T04:58:54;98833.28;;;20.38;100.00
53719;BME280;39616;48.872;9.390;2023-08-21T05:01:25;98828.75;;;20.46;100.00
53719;BME280;39616;48.872;9.390;2023-08-21T05:03:55;98827.41;;;20.52;100.00
53719;BME280;39616;48.872;9.390;2023-08-21T05:06:25;98833.03;;;20.56;100.00
53719;BME280;39616;48.872;9.390;2023-08-21T05:08:56;98839.06;;;20.61;100.00
53719;BME280;39616;48.872;9.390;2023-08-21T05:11:26;98840.06;;;20.69;100.00
53719;BME280;39616;48.872;9.390;2023-08-21T05:13:56;98846.50;;;20.73;100.00
53719;BME280;39616;48.872;9.390;2023-08-21T05:16:27;98837.19;;;20.78;100.00
53719;BME280;39616;48.872;9.390;2023-08-21T05:18:57;98845.19;;;20.83;100.00
53719;BME280;39616;48.872;9.390;2023-08-21T05:21:27;98842.63;;;20.90;100.00
53719;BME280;39616;48.872;9.390;2023-08-21T05:23:58;98853.38;;;20.95;100.00
53719;BME280;39616;48.872;9.390;2023-08-21T05:26:28;98850.47;;;21.04;100.00
53719;BME280;39616;48.872;9.390;2023-08-21T05:28:58;98851.09;;;21.13;100.00
53719;BME280;39616;48.872;9.390;2023-08-21T05:31:29;98854.41;;;21.18;100.00
53719;BME280;39616;48.872;9.390;2023-08-21T05:34:00;98851.47;;;21.27;100.00
53719;BME280;39616;48.872;9.390;2023-08-21T05:36:30;98853.28;;;21.35;100.00
53719;BME280;39616;48.872;9.390;2023-08-21T05:39:02;98859.88;;;21.46;100.00
53719;BME280;39616;48.872;9.390;2023-08-21T05:41:35;98858.66;;;21.60;100.00
53719;BME280;39616;48.872;9.390;2023-08-21T05:44:07;98852.59;;;21.70;100.00
53719;BME280;39616;48.872;9.390;2023-08-21T05:46:37;98864.69;;;21.81;100.00
53719;BME280;39616;48.872;9.390;2023-08-21T05:49:08;98861.91;;;21.97;100.00
53719;BME280;39616;48.872;9.390;2023-08-21T05:51:38;98870.09;;;22.09;100.00
53719;BME280;39616;48.872;9.390;2023-08-21T05:54:08;98873.91;;;22.21;100.00
53719;BME280;39616;48.872;9.390;2023-08-21T05:56:39;98869.44;;;22.32;100.00
53719;BME280;39616;48.872;9.390;2023-08-21T05:59:10;98876.50;;;22.49;100.00
53719;BME280;39616;48.872;9.390;2023-08-21T06:01:40;98878.75;;;22.62;100.00
53719;BME280;39616;48.872;9.390;2023-08-21T06:04:11;98871.78;;;22.69;100.00
53719;BME280;39616;48.872;9.390;2023-08-21T06:06:41;98871.31;;;22.86;100.00
53719;BME280;39616;48.872;9.390;2023-08-21T06:09:11;98870.78;;;22.96;100.00
53719;BME280;39616;48.872;9.390;2023-08-21T06:11:42;98877.75;;;23.09;100.00
53719;BME280;39616;48.872;9.390;2023-08-21T06:14:12;98878.69;;;23.17;100.00
53719;BME280;39616;48.872;9.390;2023-08-21T06:16:42;98883.63;;;23.27;100.00
53719;BME280;39616;48.872;9.390;2023-08-21T06:19:15;98880.59;;;23.36;100.00
53719;BME280;39616;48.872;9.390;2023-08-21T06:21:45;98884.75;;;23.46;100.00
53719;BME280;39616;48.872;9.390;2023-08-21T06:24:15;98888.78;;;23.52;100.00
53719;BME280;39616;48.872;9.390;2023-08-21T06:26:46;98894.13;;;23.41;100.00
53719;BME280;39616;48.872;9.390;2023-08-21T06:29:16;98883.97;;;23.68;100.00
53719;BME280;39616;48.872;9.390;2023-08-21T06:31:46;98883.44;;;23.85;100.00
53719;BME280;39616;48.872;9.390;2023-08-21T06:34:17;98890.03;;;24.04;98.44
53719;BME280;39616;48.872;9.390;2023-08-21T06:36:47;98889.91;;;24.20;97.80
53719;BME280;39616;48.872;9.390;2023-08-21T06:39:17;98891.31;;;24.37;96.42
53719;BME280;39616;48.872;9.390;2023-08-21T06:41:48;98887.03;;;24.39;96.67
53719;BME280;39616;48.872;9.390;2023-08-21T06:44:18;98883.31;;;24.58;95.43
53719;BME280;39616;48.872;9.390;2023-08-21T06:46:48;98893.75;;;24.68;92.14
53719;BME280;39616;48.872;9.390;2023-08-21T06:49:19;98890.41;;;24.86;92.28
53719;BME280;39616;48.872;9.390;2023-08-21T06:51:49;98891.00;;;25.02;90.74
53719;BME280;39616;48.872;9.390;2023-08-21T06:54:20;98896.69;;;25.13;89.16
53719;BME280;39616;48.872;9.390;2023-08-21T06:56:50;98891.31;;;24.93;89.10
53719;BME280;39616;48.872;9.390;2023-08-21T06:59:20;98891.22;;;25.20;89.77
53719;BME280;39616;48.872;9.390;2023-08-21T07:01:51;98886.16;;;25.29;87.55
53719;BME280;39616;48.872;9.390;2023-08-21T07:04:21;98887.97;;;25.55;85.37
53719;BME280;39616;48.872;9.390;2023-08-21T07:06:52;98889.53;;;25.49;85.63
53719;BME280;39616;48.872;9.390;2023-08-21T07:09:22;98901.53;;;25.60;88.25
53719;BME280;39616;48.872;9.390;2023-08-21T07:11:53;98891.88;;;25.91;84.04
53719;BME280;39616;48.872;9.390;2023-08-21T07:14:23;98895.59;;;26.10;81.46
53719;BME280;39616;48.872;9.390;2023-08-21T07:16:53;98893.97;;;26.05;81.59
53719;BME280;39616;48.872;9.390;2023-08-21T07:19:24;98897.78;;;26.38;79.88
53719;BME280;39616;48.872;9.390;2023-08-21T07:21:54;98896.72;;;26.60;78.04
53719;BME280;39616;48.872;9.390;2023-08-21T07:24:24;98895.38;;;26.40;78.55
53719;BME280;39616;48.872;9.390;2023-08-21T07:26:55;98903.06;;;26.57;77.75
53719;BME280;39616;48.872;9.390;2023-08-21T07:29:25;98902.41;;;26.82;76.01
53719;BME280;39616;48.872;9.390;2023-08-21T07:31:55;98904.91;;;27.12;75.34
53719;BME280;39616;48.872;9.390;2023-08-21T07:34:26;98915.72;;;27.38;75.34
53719;BME280;39616;48.872;9.390;2023-08-21T07:36:56;98907.38;;;27.49;75.41
53719;BME280;39616;48.872;9.390;2023-08-21T07:39:26;98910.16;;;27.45;74.94
53719;BME280;39616;48.872;9.390;2023-08-21T07:41:57;98905.41;;;27.60;74.93
53719;BME280;39616;48.872;9.390;2023-08-21T07:44:27;98911.00;;;27.96;73.46
53719;BME280;39616;48.872;9.390;2023-08-21T07:46:57;98913.81;;;27.85;73.78
53719;BME280;39616;48.872;9.390;2023-08-21T07:49:28;98914.16;;;28.16;71.64
53719;BME280;39616;48.872;9.390;2023-08-21T07:51:58;98916.16;;;28.23;70.45
53719;BME280;39616;48.872;9.390;2023-08-21T07:54:28;98920.94;;;28.40;70.66
53719;BME280;39616;48.872;9.390;2023-08-21T07:56:59;98922.94;;;28.11;71.05
53719;BME280;39616;48.872;9.390;2023-08-21T07:59:29;98921.72;;;28.37;70.81
53719;BME280;39616;48.872;9.390;2023-08-21T08:01:59;98920.94;;;28.44;69.92
53719;BME280;39616;48.872;9.390;2023-08-21T08:04:31;98924.09;;;28.46;70.60
53719;BME280;39616;48.872;9.390;2023-08-21T08:07:01;98928.53;;;28.18;70.79
53719;BME280;39616;48.872;9.390;2023-08-21T08:09:31;98918.16;;;28.47;69.95
53719;BME280;39616;48.872;9.390;2023-08-21T08:12:02;98924.03;;;28.74;68.95
53719;BME280;39616;48.872;9.390;2023-08-21T08:14:32;98915.06;;;29.26;69.71
53719;BME280;39616;48.872;9.390;2023-08-21T08:17:02;98916.56;;;29.97;64.58
53719;BME280;39616;48.872;9.390;2023-08-21T08:19:33;98916.75;;;29.79;64.26
53719;BME280;39616;48.872;9.390;2023-08-21T08:22:04;98914.97;;;29.99;63.40
53719;BME280;39616;48.872;9.390;2023-08-21T08:24:34;98927.88;;;29.12;66.34
53719;BME280;39616;48.872;9.390;2023-08-21T08:27:04;98925.75;;;29.34;65.88
53719;BME280;39616;48.872;9.390;2023-08-21T08:29:34;98915.44;;;30.36;63.25
53719;BME280;39616;48.872;9.390;2023-08-21T08:32:05;98915.22;;;30.57;62.74
53719;BME280;39616;48.872;9.390;2023-08-21T08:34:35;98916.38;;;30.22;62.89
53719;BME280;39616;48.872;9.390;2023-08-21T08:37:08;98919.34;;;29.97;63.83
53719;BME280;39616;48.872;9.390;2023-08-21T08:39:38;98914.97;;;30.82;61.51
53719;BME280;39616;48.872;9.390;2023-08-21T08:42:08;98918.69;;;30.68;61.73
53719;BME280;39616;48.872;9.390;2023-08-21T08:44:42;98916.00;;;31.22;59.16
53719;BME280;39616;48.872;9.390;2023-08-21T08:47:13;98920.88;;;31.18;60.17
53719;BME280;39616;48.872;9.390;2023-08-21T08:49:47;98912.47;;;31.18;60.30
53719;BME280;39616;48.872;9.390;2023-08-21T08:52:18;98909.50;;;31.33;59.72
53719;BME280;39616;48.872;9.390;2023-08-21T08:54:49;98905.44;;;32.58;58.21
53719;BME280;39616;48.872;9.390;2023-08-21T08:57:20;98917.28;;;31.75;58.83
53719;BME280;39616;48.872;9.390;2023-08-21T08:59:50;98915.31;;;31.72;58.21
53719;BME280;39616;48.872;9.390;2023-08-21T09:02:20;98912.72;;;31.85;57.52
53719;BME280;39616;48.872;9.390;2023-08-21T09:04:51;98915.47;;;31.04;60.05
53719;BME280;39616;48.872;9.390;2023-08-21T09:07:21;98909.56;;;31.25;59.24
53719;BME280;39616;48.872;9.390;2023-08-21T09:09:51;98910.16;;;31.71;57.35
53719;BME280;39616;48.872;9.390;2023-08-21T09:12:22;98913.09;;;32.34;56.92
53719;BME280;39616;48.872;9.390;2023-08-21T09:14:53;98910.75;;;32.72;55.70
53719;BME280;39616;48.872;9.390;2023-08-21T09:17:23;98909.41;;;32.61;55.85
53719;BME280;39616;48.872;9.390;2023-08-21T09:19:53;98908.25;;;31.64;57.40
53719;BME280;39616;48.872;9.390;2023-08-21T09:22:24;98908.22;;;31.91;55.84
53719;BME280;39616;48.872;9.390;2023-08-21T09:25:02;98906.69;;;32.34;56.69
53719;BME280;39616;48.872;9.390;2023-08-21T09:27:38;98908.88;;;32.46;55.19
53719;BME280;39616;48.872;9.390;2023-08-21T09:30:09;98909.66;;;31.76;57.83
53719;BME280;39616;48.872;9.390;2023-08-21T09:32:56;98910.66;;;31.62;57.83
53719;BME280;39616;48.872;9.390;2023-08-21T09:35:27;98900.31;;;32.53;56.43
53719;BME280;39616;48.872;9.390;2023-08-21T09:37:57;98902.94;;;33.04;54.39
53719;BME280;39616;48.872;9.390;2023-08-21T09:40:27;98907.81;;;32.36;55.54
53719;BME280;39616;48.872;9.390;2023-08-21T09:42:58;98901.56;;;33.48;53.46
53719;BME280;39616;48.872;9.390;2023-08-21T09:45:29;98897.88;;;33.84;51.38
53719;BME280;39616;48.872;9.390;2023-08-21T09:48:00;98899.38;;;32.80;54.42
53719;BME280;39616;48.872;9.390;2023-08-21T09:50:30;98901.50;;;32.56;52.95
53719;BME280;39616;48.872;9.390;2023-08-21T09:53:01;98900.38;;;32.69;51.97
53719;BME280;39616;48.872;9.390;2023-08-21T09:55:33;98900.28;;;33.33;51.31
53719;BME280;39616;48.872;9.390;2023-08-21T09:58:03;98891.81;;;33.16;50.39
53719;BME280;39616;48.872;9.390;2023-08-21T10:00:37;98897.03;;;32.98;49.98
53719;BME280;39616;48.872;9.390;2023-08-21T10:03:09;98900.28;;;33.33;49.77
53719;BME280;39616;48.872;9.390;2023-08-21T10:05:40;98895.53;;;33.46;49.45
53719;BME280;39616;48.872;9.390;2023-08-21T10:08:11;98897.16;;;33.47;48.28
53719;BME280;39616;48.872;9.390;2023-08-21T10:10:42;98887.66;;;34.23;47.62
53719;BME280;39616;48.872;9.390;2023-08-21T10:13:12;98884.53;;;33.88;48.87
53719;BME280;39616;48.872;9.390;2023-08-21T10:15:44;98885.84;;;33.67;49.27
53719;BME280;39616;48.872;9.390;2023-08-21T10:18:22;98882.28;;;33.30;50.13
53719;BME280;39616;48.872;9.390;2023-08-21T10:20:53;98864.69;;;34.24;48.04
53719;BME280;39616;48.872;9.390;2023-08-21T10:23:29;98867.63;;;34.50;46.98
53719;BME280;39616;48.872;9.390;2023-08-21T10:26:01;98873.47;;;33.81;48.35
53719;BME280;39616;48.872;9.390;2023-08-21T10:29:02;98861.47;;;34.26;47.22
53719;BME280;39616;48.872;9.390;2023-08-21T10:34:05;98861.25;;;34.04;46.90
53719;BME280;39616;48.872;9.390;2023-08-21T10:42:07;98851.72;;;34.72;45.56
53719;BME280;39616;48.872;9.390;2023-08-21T10:47:19;98855.00;;;33.80;47.55
53719;BME280;39616;48.872;9.390;2023-08-21T10:50:01;98854.63;;;34.10;45.57
53719;BME280;39616;48.872;9.390;2023-08-21T10:55:09;98850.00;;;35.04;44.69
53719;BME280;39616;48.872;9.390;2023-08-21T10:57:40;98847.16;;;34.91;45.85
53719;BME280;39616;48.872;9.390;2023-08-21T11:00:15;98850.97;;;34.26;46.61
53719;BME280;39616;48.872;9.390;2023-08-21T11:02:49;98847.44;;;33.60;47.46
53719;BME280;39616;48.872;9.390;2023-08-21T11:05:20;98837.38;;;34.25;46.30
53719;BME280;39616;48.872;9.390;2023-08-21T11:07:51;98847.63;;;33.53;47.43
53719;BME280;39616;48.872;9.390;2023-08-21T11:10:22;98842.84;;;33.34;47.91
53719;BME280;39616;48.872;9.390;2023-08-21T11:12:54;98838.56;;;33.78;47.45
53719;BME280;39616;48.872;9.390;2023-08-21T11:15:29;98837.50;;;34.50;46.92
53719;BME280;39616;48.872;9.390;2023-08-21T11:18:02;98850.88;;;33.68;47.81
53719;BME280;39616;48.872;9.390;2023-08-21T11:20:34;98842.88;;;33.66;48.09
53719;BME280;39616;48.872;9.390;2023-08-21T11:23:06;98841.84;;;33.77;47.68
53719;BME280;39616;48.872;9.390;2023-08-21T11:25:40;98846.69;;;33.07;47.62
53719;BME280;39616;48.872;9.390;2023-08-21T11:28:10;98844.25;;;33.42;46.60
53719;BME280;39616;48.872;9.390;2023-08-21T11:30:43;98840.41;;;33.85;47.15
53719;BME280;39616;48.872;9.390;2023-08-21T11:33:13;98843.03;;;33.76;46.74
53719;BME280;39616;48.872;9.390;2023-08-21T11:35:44;98846.31;;;33.74;46.55
53719;BME280;39616;48.872;9.390;2023-08-21T11:38:18;98838.25;;;33.24;47.26
53719;BME280;39616;48.872;9.390;2023-08-21T11:40:54;98834.34;;;33.37;47.15
53719;BME280;39616;48.872;9.390;2023-08-21T11:43:35;98830.75;;;33.70;46.57
53719;BME280;39616;48.872;9.390;2023-08-21T11:46:07;98831.84;;;33.39;47.51
53719;BME280;39616;48.872;9.390;2023-08-21T11:48:38;98829.06;;;33.39;47.19
53719;BME280;39616;48.872;9.390;2023-08-21T11:51:09;98819.56;;;33.17;47.90
53719;BME280;39616;48.872;9.390;2023-08-21T11:53:41;98823.97;;;33.34;47.11
53719;BME280;39616;48.872;9.390;2023-08-21T11:56:16;98820.06;;;33.48;46.78
53719;BME280;39616;48.872;9.390;2023-08-21T11:58:47;98820.06;;;32.76;48.07
53719;BME280;39616;48.872;9.390;2023-08-21T12:01:20;98822.88;;;33.12;47.18
53719;BME280;39616;48.872;9.390;2023-08-21T12:03:51;98820.84;;;32.96;48.57
53719;BME280;39616;48.872;9.390;2023-08-21T12:06:25;98813.97;;;32.61;48.52
53719;BME280;39616;48.872;9.390;2023-08-21T12:08:56;98815.56;;;32.42;49.41
53719;BME280;39616;48.872;9.390;2023-08-21T12:11:27;98826.13;;;32.11;49.74
53719;BME280;39616;48.872;9.390;2023-08-21T12:13:57;98822.53;;;31.90;49.92
53719;BME280;39616;48.872;9.390;2023-08-21T12:16:27;98816.28;;;32.03;50.25
53719;BME280;39616;48.872;9.390;2023-08-21T12:18:58;98815.88;;;32.24;50.32
53719;BME280;39616;48.872;9.390;2023-08-21T12:21:29;98815.22;;;32.16;50.24
53719;BME280;39616;48.872;9.390;2023-08-21T12:23:59;98818.88;;;32.13;51.05
53719;BME280;39616;48.872;9.390;2023-08-21T12:26:29;98812.94;;;32.11;51.52
53719;BME280;39616;48.872;9.390;2023-08-21T12:29:00;98808.72;;;31.76;50.06
53719;BME280;39616;48.872;9.390;2023-08-21T12:31:31;98808.44;;;31.70;51.68
53719;BME280;39616;48.872;9.390;2023-08-21T12:34:01;98811.91;;;31.78;52.89
53719;BME280;39616;48.872;9.390;2023-08-21T12:36:34;98800.25;;;31.80;52.37
53719;BME280;39616;48.872;9.390;2023-08-21T12:39:06;98802.47;;;31.68;51.65
53719;BME280;39616;48.872;9.390;2023-08-21T12:41:36;98804.41;;;31.71;51.68
53719;BME280;39616;48.872;9.390;2023-08-21T12:44:07;98798.25;;;31.57;53.62
53719;BME280;39616;48.872;9.390;2023-08-21T12:46:39;98802.84;;;31.70;54.73
53719;BME280;39616;48.872;9.390;2023-08-21T12:49:09;98797.00;;;31.81;50.57
53719;BME280;39616;48.872;9.390;2023-08-21T12:51:40;98793.97;;;31.95;48.92
53719;BME280;39616;48.872;9.390;2023-08-21T12:54:10;98789.84;;;32.63;47.41
53719;BME280;39616;48.872;9.390;2023-08-21T12:56:40;98793.06;;;32.82;48.20
53719;BME280;39616;48.872;9.390;2023-08-21T12:59:12;98775.75;;;33.36;48.07
53719;BME280;39616;48.872;9.390;2023-08-21T13:01:43;98772.41;;;33.41;48.19
53719;BME280;39616;48.872;9.390;2023-08-21T13:04:14;98778.94;;;33.22;47.76
53719;BME280;39616;48.872;9.390;2023-08-21T13:06:44;98784.25;;;32.63;48.58
53719;BME280;39616;48.872;9.390;2023-08-21T13:09:14;98785.47;;;32.42;48.96
53719;BME280;39616;48.872;9.390;2023-08-21T13:11:44;98779.97;;;32.91;47.97
53719;BME280;39616;48.872;9.390;2023-08-21T13:14:15;98771.38;;;32.82;48.40
53719;BME280;39616;48.872;9.390;2023-08-21T13:16:45;98778.84;;;33.25;47.31
53719;BME280;39616;48.872;9.390;2023-08-21T13:19:15;98775.38;;;33.17;46.02
53719;BME280;39616;48.872;9.390;2023-08-21T13:21:46;98766.78;;;33.57;45.35
53719;BME280;39616;48.872;9.390;2023-08-21T13:24:16;98765.81;;;33.64;45.42
53719;BME280;39616;48.872;9.390;2023-08-21T13:26:47;98766.69;;;33.77;45.37
53719;BME280;39616;48.872;9.390;2023-08-21T13:29:17;98752.75;;;33.57;45.98
53719;BME280;39616;48.872;9.390;2023-08-21T13:31:47;98760.22;;;33.64;44.68